createdAt,value
2023-01-10T00:01:52.115Z,4.36
2023-01-10T00:04:19.986Z,4.31
2023-01-10T00:06:47.938Z,4.21
2023-01-10T00:09:15.897Z,4.18
2023-01-10T00:12:02.521Z,4.22
2023-01-10T00:14:30.471Z,4.30
2023-01-10T00:16:58.333Z,4.31
2023-01-10T00:19:26.292Z,4.21
2023-01-10T00:21:55.185Z,4.22
2023-01-10T00:24:23.714Z,4.25
2023-01-10T00:26:52.151Z,4.24
2023-01-10T00:29:26.135Z,4.21
2023-01-10T00:31:53.974Z,4.27
2023-01-10T00:34:21.885Z,4.28
2023-01-10T00:36:49.840Z,4.25
2023-01-10T00:39:20.383Z,4.33
2023-01-10T00:42:06.882Z,4.33
2023-01-10T00:44:35.092Z,4.35
2023-01-10T00:47:02.983Z,4.34
2023-01-10T00:49:30.894Z,4.39
2023-01-10T00:52:00.047Z,4.36
2023-01-10T00:54:28.859Z,4.37
2023-01-10T00:56:57.067Z,4.35
2023-01-10T00:59:25.232Z,4.41
2023-01-10T01:01:53.549Z,4.43
2023-01-10T01:04:22.193Z,4.40
2023-01-10T01:06:50.926Z,4.39
2023-01-10T01:09:19.021Z,4.41
2023-01-10T01:11:46.860Z,4.49
2023-01-10T01:14:14.931Z,4.49
2023-01-10T01:16:42.829Z,4.50
2023-01-10T01:19:12.730Z,4.45
2023-01-10T01:21:40.766Z,4.43
2023-01-10T01:24:11.583Z,4.45
2023-01-10T01:26:40.047Z,4.42
2023-01-10T01:29:08.095Z,4.44
2023-01-10T01:31:36.034Z,4.49
2023-01-10T01:34:04.275Z,4.49
2023-01-10T01:36:32.101Z,4.46
2023-01-10T01:39:00.021Z,4.48
2023-01-10T01:41:46.282Z,4.50
2023-01-10T01:44:17.631Z,4.51
2023-01-10T01:46:47.974Z,4.52
2023-01-10T01:49:18.251Z,4.44
2023-01-10T01:51:47.372Z,4.51
2023-01-10T01:54:16.392Z,4.54
2023-01-10T01:57:05.973Z,4.51
2023-01-10T01:59:39.820Z,4.58
2023-01-10T02:02:27.925Z,4.59
2023-01-10T02:04:56.135Z,4.58
2023-01-10T02:07:25.243Z,4.60
2023-01-10T02:10:01.591Z,4.61
2023-01-10T02:12:30.286Z,4.67
2023-01-10T02:14:59.393Z,4.66
2023-01-10T02:17:27.262Z,4.65
2023-01-10T02:20:01.470Z,4.66
2023-01-10T02:22:48.247Z,4.70
2023-01-10T02:25:28.602Z,4.69
2023-01-10T02:28:06.255Z,4.71
2023-01-10T02:30:40.303Z,4.71
2023-01-10T02:33:27.106Z,4.73
2023-01-10T02:35:58.111Z,4.78
2023-01-10T02:38:36.426Z,4.81
2023-01-10T02:41:19.595Z,4.85
2023-01-10T02:44:00.004Z,4.87
2023-01-10T02:46:29.743Z,4.88
2023-01-10T02:48:57.868Z,4.88
2023-01-10T02:51:29.681Z,4.93
2023-01-10T02:54:10.143Z,4.92
2023-01-10T02:56:52.463Z,4.94
2023-01-10T02:59:39.112Z,4.98
2023-01-10T03:02:22.341Z,4.96
2023-01-10T03:04:59.667Z,4.95
2023-01-10T03:07:42.804Z,5.03
2023-01-10T03:10:16.512Z,5.03
2023-01-10T03:12:47.465Z,5.04
2023-01-10T03:15:17.750Z,5.05
2023-01-10T03:17:47.590Z,5.06
2023-01-10T03:20:17.642Z,5.06
2023-01-10T03:22:47.105Z,5.09
2023-01-10T03:25:17.844Z,5.17
2023-01-10T03:27:49.116Z,5.18
2023-01-10T03:30:26.240Z,5.13
2023-01-10T03:32:55.750Z,5.11
2023-01-10T03:35:29.517Z,5.14
2023-01-10T03:38:02.213Z,5.20
2023-01-10T03:40:32.830Z,5.19
2023-01-10T03:43:21.819Z,5.16
2023-01-10T03:45:54.063Z,5.21
2023-01-10T03:48:25.435Z,5.26
2023-01-10T03:50:56.527Z,5.29
2023-01-10T03:53:24.360Z,5.30
2023-01-10T03:55:52.231Z,5.30
2023-01-10T03:58:22.066Z,5.36
2023-01-10T04:00:50.092Z,5.41
2023-01-10T04:03:18.042Z,5.37
2023-01-10T04:05:46.429Z,5.39
2023-01-10T04:08:14.452Z,5.38
2023-01-10T04:10:42.273Z,5.36
2023-01-10T04:13:10.037Z,5.40
2023-01-10T04:15:37.910Z,5.47
2023-01-10T04:18:07.105Z,5.50
2023-01-10T04:20:34.906Z,5.54
2023-01-10T04:23:02.973Z,5.47
2023-01-10T04:25:30.896Z,5.47
2023-01-10T04:27:59.104Z,5.45
2023-01-10T04:30:27.416Z,5.52
2023-01-10T04:32:55.195Z,5.53
2023-01-10T04:35:23.044Z,5.52
2023-01-10T04:37:50.926Z,5.46
2023-01-10T04:40:23.554Z,5.47
2023-01-10T04:42:51.694Z,5.54
2023-01-10T04:45:21.799Z,5.57
2023-01-10T04:47:51.083Z,5.51
2023-01-10T04:50:19.150Z,5.50
2023-01-10T04:52:46.998Z,5.56
2023-01-10T04:55:14.929Z,5.60
2023-01-10T04:57:42.834Z,5.61
2023-01-10T05:00:12.254Z,5.60
2023-01-10T05:02:44.101Z,5.62
2023-01-10T05:05:15.651Z,5.63
2023-01-10T05:07:45.884Z,5.59
2023-01-10T05:10:13.673Z,5.60
2023-01-10T05:12:41.542Z,5.58
2023-01-10T05:15:09.720Z,5.58
2023-01-10T05:17:38.135Z,5.55
2023-01-10T05:20:06.204Z,5.56
2023-01-10T05:22:35.738Z,5.55
2023-01-10T05:25:03.774Z,5.60
2023-01-10T05:27:32.040Z,5.56
2023-01-10T05:29:59.847Z,5.56
2023-01-10T05:32:30.655Z,5.54
2023-01-10T05:34:58.448Z,5.55
2023-01-10T05:37:26.203Z,5.60
2023-01-10T05:39:54.083Z,5.62
2023-01-10T05:42:23.583Z,5.64
2023-01-10T05:44:51.474Z,5.64
2023-01-10T05:47:19.443Z,5.61
2023-01-10T05:49:47.270Z,5.54
2023-01-10T05:52:15.157Z,5.51
2023-01-10T05:54:43.004Z,5.47
2023-01-10T05:57:10.800Z,5.57
2023-01-10T05:59:38.987Z,5.59
2023-01-10T06:02:07.083Z,5.65
2023-01-10T06:04:35.311Z,5.68
2023-01-10T06:07:03.064Z,5.74
2023-01-10T06:09:32.800Z,5.76
2023-01-10T06:12:02.114Z,5.81
2023-01-10T06:14:29.985Z,5.78
2023-01-10T06:16:57.904Z,5.80
2023-01-10T06:19:25.739Z,5.85
2023-01-10T06:21:53.564Z,5.88
2023-01-10T06:24:21.409Z,5.85
2023-01-10T06:26:51.758Z,5.87
2023-01-10T06:29:19.591Z,5.90
2023-01-10T06:31:47.397Z,5.93
2023-01-10T06:34:15.336Z,5.97
2023-01-10T06:36:43.143Z,6.00
2023-01-10T06:39:11.201Z,5.99
2023-01-10T06:41:38.995Z,6.00
2023-01-10T06:44:06.890Z,6.01
2023-01-10T06:46:34.834Z,6.02
2023-01-10T06:49:02.675Z,5.99
2023-01-10T06:51:30.613Z,5.96
2023-01-10T06:53:58.464Z,5.98
2023-01-10T06:56:26.368Z,5.97
2023-01-10T06:58:54.162Z,5.91
2023-01-10T07:01:22.109Z,5.88
2023-01-10T07:03:50.136Z,5.93
2023-01-10T07:06:18.512Z,5.96
2023-01-10T07:08:47.016Z,5.93
2023-01-10T07:11:15.794Z,6.03
2023-01-10T07:13:45.801Z,6.12
2023-01-10T07:16:15.069Z,6.17
2023-01-10T07:18:43.474Z,6.19
2023-01-10T07:21:11.487Z,6.27
2023-01-10T07:23:39.530Z,6.52
2023-01-10T07:26:09.063Z,6.55
2023-01-10T07:28:39.124Z,6.46
2023-01-10T07:31:07.204Z,6.40
2023-01-10T07:33:35.066Z,6.46
2023-01-10T07:36:03.271Z,6.39
2023-01-10T07:38:31.062Z,6.46
2023-01-10T07:41:01.365Z,6.52
2023-01-10T07:43:29.411Z,6.47
2023-01-10T07:46:04.375Z,6.49
2023-01-10T07:48:32.188Z,6.49
2023-01-10T07:51:01.096Z,6.46
2023-01-10T07:53:31.451Z,6.53
2023-01-10T07:56:00.696Z,6.61
2023-01-10T07:58:31.145Z,6.66
2023-01-10T08:00:59.681Z,6.65
2023-01-10T08:03:27.698Z,6.65
2023-01-10T08:06:03.962Z,6.68
2023-01-10T08:08:32.634Z,6.84
2023-01-10T08:11:02.822Z,6.90
2023-01-10T08:13:31.680Z,7.02
2023-01-10T08:15:59.864Z,7.14
2023-01-10T08:18:28.088Z,7.17
2023-01-10T08:20:55.872Z,7.17
2023-01-10T08:23:24.173Z,7.22
2023-01-10T08:25:52.103Z,7.22
2023-01-10T08:28:20.719Z,7.19
2023-01-10T08:30:50.487Z,7.25
2023-01-10T08:33:18.647Z,7.30
2023-01-10T08:35:46.507Z,7.33
2023-01-10T08:38:14.531Z,7.41
2023-01-10T08:40:42.434Z,7.34
2023-01-10T08:43:11.778Z,7.25
2023-01-10T08:45:39.654Z,7.25
2023-01-10T08:48:09.533Z,7.31
2023-01-10T08:50:37.522Z,7.40
2023-01-10T08:53:05.519Z,7.40
2023-01-10T08:55:35.530Z,7.32
2023-01-10T08:58:03.381Z,7.45
2023-01-10T09:00:33.957Z,7.50
2023-01-10T09:03:01.922Z,7.49
2023-01-10T09:05:29.831Z,7.49
2023-01-10T09:07:58.938Z,7.56
2023-01-10T09:10:28.442Z,7.58
2023-01-10T09:12:59.856Z,7.58
2023-01-10T09:15:32.895Z,7.58
2023-01-10T09:18:02.818Z,7.58
2023-01-10T09:20:31.214Z,7.48
2023-01-10T09:22:59.721Z,7.53
2023-01-10T09:25:27.560Z,7.59
2023-01-10T09:27:59.631Z,7.62
2023-01-10T09:30:29.475Z,7.67
2023-01-10T09:32:58.336Z,7.65
2023-01-10T09:35:26.775Z,7.66
2023-01-10T09:37:57.089Z,7.67
2023-01-10T09:40:27.981Z,7.70
2023-01-10T09:42:58.748Z,7.72
2023-01-10T09:45:37.834Z,7.78
2023-01-10T09:48:08.279Z,7.70
2023-01-10T09:50:54.999Z,7.63
2023-01-10T09:53:24.817Z,7.61
2023-01-10T09:55:54.471Z,7.55
2023-01-10T09:58:31.211Z,7.52
2023-01-10T10:01:04.935Z,7.52
2023-01-10T10:03:39.005Z,7.51
2023-01-10T10:06:12.633Z,7.46
2023-01-10T10:08:42.308Z,7.42
2023-01-10T10:11:16.202Z,7.42
2023-01-10T10:14:10.649Z,7.49
2023-01-10T10:16:44.668Z,7.46
2023-01-10T10:19:18.782Z,7.49
2023-01-10T10:21:56.240Z,7.47
2023-01-10T10:24:45.135Z,7.46
2023-01-10T10:27:19.180Z,7.49
2023-01-10T10:29:56.156Z,7.50
2023-01-10T10:32:46.871Z,7.56
2023-01-10T10:35:27.212Z,7.64
2023-01-10T10:37:57.427Z,7.72
2023-01-10T10:40:30.422Z,7.69
2023-01-10T10:43:00.369Z,7.68
2023-01-10T10:45:35.445Z,7.74
2023-01-10T10:48:12.457Z,7.78
2023-01-10T10:50:48.635Z,7.81
2023-01-10T10:53:18.895Z,7.86
2023-01-10T10:55:47.644Z,7.88
2023-01-10T10:58:16.089Z,7.95
2023-01-10T11:00:43.972Z,7.97
2023-01-10T11:03:25.881Z,7.97
2023-01-10T11:05:54.037Z,7.93
2023-01-10T11:08:23.612Z,7.92
2023-01-10T11:10:55.601Z,7.89
2023-01-10T11:13:26.530Z,8.00
2023-01-10T11:15:56.160Z,8.15
2023-01-10T11:18:26.122Z,8.24
2023-01-10T11:21:06.396Z,8.27
2023-01-10T11:23:37.153Z,8.29
2023-01-10T11:26:06.861Z,8.37
2023-01-10T11:28:34.997Z,8.45
2023-01-10T11:31:03.632Z,8.48
2023-01-10T11:33:35.453Z,8.52
2023-01-10T11:36:08.183Z,8.52
2023-01-10T11:38:36.183Z,8.60
2023-01-10T11:41:05.719Z,8.63
2023-01-10T11:43:34.181Z,8.55
2023-01-10T11:46:02.966Z,8.63
2023-01-10T11:49:04.943Z,8.66
2023-01-10T11:51:38.082Z,8.76
2023-01-10T11:54:05.974Z,8.82
2023-01-10T11:56:37.656Z,8.85
2023-01-10T11:59:12.619Z,8.83
2023-01-10T12:01:46.366Z,8.81
2023-01-10T12:04:23.819Z,8.85
2023-01-10T12:06:54.198Z,8.95
2023-01-10T12:09:51.524Z,9.03
2023-01-10T12:12:23.045Z,9.08
2023-01-10T12:14:51.833Z,9.13
2023-01-10T12:17:22.671Z,9.18
2023-01-10T12:19:55.431Z,9.22
2023-01-10T12:22:27.161Z,9.28
2023-01-10T12:24:57.114Z,9.31
2023-01-10T12:27:28.912Z,9.32
2023-01-10T12:30:12.478Z,9.31
2023-01-10T12:32:51.777Z,9.16
2023-01-10T12:35:23.499Z,9.06
2023-01-10T12:38:03.709Z,9.05
2023-01-10T12:40:59.985Z,9.08
2023-01-10T12:43:53.226Z,9.01
2023-01-10T12:46:53.037Z,8.95
2023-01-10T12:49:23.406Z,8.96
2023-01-10T12:51:53.093Z,8.97
2023-01-10T12:54:26.377Z,8.95
2023-01-10T12:56:59.058Z,8.91
2023-01-10T12:59:38.057Z,8.90
2023-01-10T13:02:07.962Z,8.90
2023-01-10T13:04:39.889Z,8.90
2023-01-10T13:07:10.751Z,8.93
2023-01-10T13:09:42.676Z,8.98
2023-01-10T13:12:21.437Z,8.96
2023-01-10T13:14:59.971Z,8.95
2023-01-10T13:17:33.894Z,8.92
2023-01-10T13:20:16.943Z,8.91
2023-01-10T13:22:48.670Z,8.90
2023-01-10T13:25:19.684Z,8.90
2023-01-10T13:27:52.352Z,8.87
2023-01-10T13:30:43.090Z,8.90
2023-01-10T13:33:22.799Z,8.94
2023-01-10T13:35:51.903Z,8.95
2023-01-10T13:38:22.095Z,8.97
2023-01-10T13:40:58.663Z,8.99
2023-01-10T13:43:36.625Z,8.99
2023-01-10T13:46:17.178Z,8.97
2023-01-10T13:48:50.952Z,8.94
2023-01-10T13:51:20.978Z,8.83
2023-01-10T13:53:48.750Z,8.71
2023-01-10T13:56:34.535Z,8.63
2023-01-10T13:59:18.165Z,8.60
2023-01-10T14:02:11.906Z,8.58
2023-01-10T14:04:46.171Z,8.48
2023-01-10T14:07:14.206Z,8.40
2023-01-10T14:09:44.855Z,8.40
2023-01-10T14:12:25.183Z,8.43
2023-01-10T14:14:54.789Z,8.45
2023-01-10T14:17:26.196Z,8.46
2023-01-10T14:20:03.440Z,8.46
2023-01-10T14:22:33.200Z,8.35
2023-01-10T14:25:02.433Z,8.27
2023-01-10T14:27:56.738Z,8.23
2023-01-10T14:30:30.646Z,8.22
2023-01-10T14:33:19.503Z,8.20
2023-01-10T14:35:51.698Z,8.16
2023-01-10T14:38:34.912Z,8.13
2023-01-10T14:41:07.468Z,8.07
2023-01-10T14:44:11.762Z,8.07
2023-01-10T14:46:42.600Z,8.02
2023-01-10T14:49:36.717Z,8.01
2023-01-10T14:52:13.803Z,8.03
2023-01-10T14:54:42.318Z,7.91
2023-01-10T14:57:20.283Z,7.91
2023-01-10T14:59:50.102Z,7.94
2023-01-10T15:02:28.019Z,7.96
2023-01-10T15:04:57.227Z,7.94
2023-01-10T15:07:25.943Z,7.87
2023-01-10T15:09:57.239Z,7.85
2023-01-10T15:12:26.839Z,7.94
2023-01-10T15:14:59.240Z,7.90
2023-01-10T15:17:27.679Z,7.88
2023-01-10T15:19:56.180Z,7.88
2023-01-10T15:22:26.122Z,7.85
2023-01-10T15:25:17.585Z,7.87
2023-01-10T15:27:46.864Z,7.87
2023-01-10T15:30:18.547Z,7.79
2023-01-10T15:32:49.824Z,7.72
2023-01-10T15:35:23.799Z,7.73
2023-01-10T15:37:57.852Z,7.68
2023-01-10T15:40:29.661Z,7.68
2023-01-10T15:43:16.377Z,7.74
2023-01-10T15:45:50.100Z,7.83
2023-01-10T15:48:36.608Z,7.75
2023-01-10T15:51:06.211Z,7.71
2023-01-10T15:53:55.856Z,7.67
2023-01-10T15:56:26.302Z,7.67
2023-01-10T15:58:55.422Z,7.62
2023-01-10T16:01:24.119Z,7.66
2023-01-10T16:03:52.672Z,7.64
2023-01-10T16:06:29.276Z,7.60
2023-01-10T16:08:59.038Z,7.60
2023-01-10T16:11:50.135Z,7.65
2023-01-10T16:14:17.925Z,7.68
2023-01-10T16:16:45.946Z,7.71
2023-01-10T16:19:14.843Z,7.67
2023-01-10T16:21:45.323Z,7.70
2023-01-10T16:24:18.813Z,7.68
2023-01-10T16:26:47.454Z,7.66
2023-01-10T16:29:15.456Z,7.64
2023-01-10T16:31:43.456Z,7.73
2023-01-10T16:34:14.713Z,7.69
2023-01-10T16:36:43.105Z,7.61
2023-01-10T16:39:18.319Z,7.62
2023-01-10T16:42:05.128Z,7.66
2023-01-10T16:44:33.787Z,7.67
2023-01-10T16:47:06.589Z,7.58
2023-01-10T16:49:34.995Z,7.62
2023-01-10T16:52:03.889Z,7.60
2023-01-10T16:54:35.534Z,7.63
2023-01-10T16:57:03.411Z,7.60
2023-01-10T16:59:32.125Z,7.57
2023-01-10T17:02:00.552Z,7.63
2023-01-10T17:04:31.306Z,7.73
2023-01-10T17:06:59.530Z,7.73
2023-01-10T17:09:33.386Z,7.63
2023-01-10T17:12:04.772Z,7.61
2023-01-10T17:14:34.382Z,7.62
2023-01-10T17:17:05.550Z,7.71
2023-01-10T17:19:33.701Z,7.71
2023-01-10T17:22:01.548Z,7.68
2023-01-10T17:24:30.105Z,7.62
2023-01-10T17:26:57.961Z,7.62
2023-01-10T17:29:25.774Z,7.75
2023-01-10T17:31:55.851Z,7.73
2023-01-10T17:34:23.753Z,7.74
2023-01-10T17:36:51.654Z,7.78
2023-01-10T17:39:19.467Z,7.79
2023-01-10T17:41:47.768Z,7.88
2023-01-10T17:44:15.555Z,7.82
2023-01-10T17:46:43.352Z,7.80
2023-01-10T17:49:13.294Z,7.82
2023-01-10T17:51:41.382Z,7.75
2023-01-10T17:54:10.492Z,7.82
2023-01-10T17:56:38.306Z,7.85
2023-01-10T17:59:07.493Z,7.90
2023-01-10T18:01:35.497Z,7.93
2023-01-10T18:04:03.415Z,7.99
2023-01-10T18:06:31.180Z,8.06
2023-01-10T18:09:00.529Z,8.06
2023-01-10T18:11:30.772Z,8.10
2023-01-10T18:13:58.743Z,8.12
2023-01-10T18:16:27.451Z,8.12
2023-01-10T18:18:57.077Z,8.12
2023-01-10T18:21:26.151Z,8.16
2023-01-10T18:23:59.789Z,8.18
2023-01-10T18:26:27.669Z,8.20
2023-01-10T18:28:55.662Z,8.25
2023-01-10T18:31:23.476Z,8.30
2023-01-10T18:33:51.376Z,8.35
2023-01-10T18:36:20.710Z,8.30
2023-01-10T18:38:48.595Z,8.30
2023-01-10T18:41:17.178Z,8.32
2023-01-10T18:43:46.134Z,8.36
2023-01-10T18:46:16.161Z,8.37
2023-01-10T18:48:44.449Z,8.38
2023-01-10T18:51:14.176Z,8.37
2023-01-10T18:53:42.863Z,8.35
2023-01-10T18:56:10.867Z,8.35
2023-01-10T18:58:40.027Z,8.33
2023-01-10T19:01:09.308Z,8.33
2023-01-10T19:03:37.200Z,8.33
2023-01-10T19:06:06.164Z,8.29
2023-01-10T19:08:34.105Z,8.16
2023-01-10T19:11:17.815Z,8.16
2023-01-10T19:13:46.432Z,8.08
2023-01-10T19:16:25.417Z,8.05
2023-01-10T19:18:55.104Z,8.04
2023-01-10T19:21:24.026Z,8.04
2023-01-10T19:23:55.163Z,8.06
2023-01-10T19:26:24.345Z,8.08
2023-01-10T19:28:52.290Z,8.06
2023-01-10T19:31:33.542Z,8.06
2023-01-10T19:34:01.568Z,8.07
2023-01-10T19:36:34.985Z,8.05
2023-01-10T19:39:05.241Z,8.05
2023-01-10T19:41:35.136Z,7.98
2023-01-10T19:44:04.237Z,7.93
2023-01-10T19:46:34.177Z,7.94
2023-01-10T19:49:07.694Z,7.95
2023-01-10T19:51:38.100Z,7.92
2023-01-10T19:54:08.141Z,7.92
2023-01-10T19:56:36.376Z,7.91
2023-01-10T19:59:04.196Z,7.93
2023-01-10T20:01:32.119Z,7.91
2023-01-10T20:04:01.744Z,7.86
2023-01-10T20:06:31.089Z,7.83
2023-01-10T20:08:59.008Z,7.66
2023-01-10T20:11:27.678Z,7.34
2023-01-10T20:13:55.599Z,7.35
2023-01-10T20:16:24.103Z,7.37
2023-01-10T20:18:52.120Z,7.41
2023-01-10T20:21:20.011Z,7.53
2023-01-10T20:23:48.772Z,7.50
2023-01-10T20:26:21.709Z,7.47
2023-01-10T20:28:51.129Z,7.34
2023-01-10T20:31:24.014Z,7.28
2023-01-10T20:33:52.048Z,7.08
2023-01-10T20:36:21.298Z,7.10
2023-01-10T20:38:51.403Z,7.14
2023-01-10T20:41:20.848Z,6.90
2023-01-10T20:43:49.313Z,6.94
2023-01-10T20:46:19.300Z,6.69
2023-01-10T20:48:48.258Z,6.65
2023-01-10T20:51:42.491Z,6.61
2023-01-10T20:54:11.044Z,6.75
2023-01-10T20:56:39.042Z,6.72
2023-01-10T20:59:07.323Z,6.82
2023-01-10T21:01:35.983Z,6.83
2023-01-10T21:04:05.839Z,6.78
2023-01-10T21:06:34.320Z,6.67
2023-01-10T21:09:02.993Z,6.73
2023-01-10T21:11:31.036Z,6.71
2023-01-10T21:13:58.912Z,6.60
2023-01-10T21:16:26.864Z,6.54
2023-01-10T21:18:55.106Z,6.62
2023-01-10T21:21:23.295Z,6.49
2023-01-10T21:23:53.644Z,6.49
2023-01-10T21:26:21.666Z,6.53
2023-01-10T21:28:49.493Z,6.47
2023-01-10T21:31:19.177Z,6.38
2023-01-10T21:33:48.046Z,6.32
2023-01-10T21:36:16.248Z,6.35
2023-01-10T21:38:45.059Z,6.22
2023-01-10T21:41:14.084Z,6.17
2023-01-10T21:43:46.223Z,6.14
2023-01-10T21:46:14.097Z,5.89
2023-01-10T21:48:41.815Z,5.84
2023-01-10T21:51:09.665Z,5.93
2023-01-10T21:53:41.366Z,5.88
2023-01-10T21:56:09.334Z,5.94
2023-01-10T21:58:37.290Z,5.99
2023-01-10T22:01:06.146Z,5.87
2023-01-10T22:03:35.168Z,5.91
2023-01-10T22:06:03.039Z,5.99
2023-01-10T22:08:30.852Z,5.96
2023-01-10T22:10:58.766Z,5.92
2023-01-10T22:13:26.654Z,5.84
2023-01-10T22:15:59.355Z,5.74
2023-01-10T22:18:27.595Z,5.84
2023-01-10T22:20:56.022Z,5.78
2023-01-10T22:23:24.210Z,5.64
2023-01-10T22:25:59.186Z,5.57
2023-01-10T22:28:26.931Z,5.55
2023-01-10T22:30:55.750Z,5.54
2023-01-10T22:33:28.104Z,5.55
2023-01-10T22:35:56.053Z,5.52
2023-01-10T22:38:23.857Z,5.68
2023-01-10T22:40:51.888Z,5.60
2023-01-10T22:43:19.826Z,5.47
2023-01-10T22:45:47.951Z,5.43
2023-01-10T22:48:15.758Z,5.51
2023-01-10T22:50:47.721Z,5.62
2023-01-10T22:53:15.597Z,5.65
2023-01-10T22:55:43.400Z,5.74
2023-01-10T22:58:11.182Z,5.75
2023-01-10T23:00:39.017Z,5.68
2023-01-10T23:03:06.928Z,5.59
2023-01-10T23:05:34.748Z,5.69
2023-01-10T23:08:03.820Z,5.67
2023-01-10T23:10:31.604Z,5.63
2023-01-10T23:13:02.135Z,5.48
2023-01-10T23:15:30.823Z,5.47
2023-01-10T23:17:59.217Z,5.58
2023-01-10T23:20:27.200Z,5.47
2023-01-10T23:22:54.948Z,5.51
2023-01-10T23:25:22.746Z,5.48
2023-01-10T23:27:50.661Z,5.39
2023-01-10T23:30:18.558Z,5.44
2023-01-10T23:32:46.364Z,5.46
2023-01-10T23:35:14.324Z,5.44
2023-01-10T23:37:42.227Z,5.40
2023-01-10T23:40:10.525Z,5.34
2023-01-10T23:42:38.469Z,5.31
2023-01-10T23:45:06.859Z,5.28
2023-01-10T23:47:34.625Z,5.22
2023-01-10T23:50:02.456Z,5.18
2023-01-10T23:52:30.294Z,5.12
2023-01-10T23:54:58.747Z,5.06
2023-01-10T23:57:26.593Z,5.11
2023-01-10T23:59:54.703Z,5.19
